sensor_id;sensor_type;location;lat;lon;timestamp;pressure;altitude;pressure_sealevel;temperature;humidity
76590;BME280;65471;55.908;37.880;2023-06-14T00:00:46;100201.69;;;10.64;71.44
76590;BME280;65471;55.908;37.880;2023-06-14T00:03:15;100211.69;;;10.63;71.20
76590;BME280;65471;55.908;37.880;2023-06-14T00:05:44;100209.22;;;10.62;71.75
76590;BME280;65471;55.908;37.880;2023-06-14T00:08:13;100210.25;;;10.61;71.80
76590;BME280;65471;55.908;37.880;2023-06-14T00:10:42;100203.41;;;10.58;71.60
76590;BME280;65471;55.908;37.880;2023-06-14T00:13:09;100220.66;;;10.57;71.43
76590;BME280;65471;55.908;37.880;2023-06-14T00:15:37;100216.97;;;10.51;72.11
76590;BME280;65471;55.908;37.880;2023-06-14T00:18:04;100220.13;;;10.48;72.11
76590;BME280;65471;55.908;37.880;2023-06-14T00:20:33;100209.75;;;10.45;72.29
76590;BME280;65471;55.908;37.880;2023-06-14T00:23:00;100214.16;;;10.40;72.32
76590;BME280;65471;55.908;37.880;2023-06-14T00:25:28;100212.25;;;10.40;72.31
76590;BME280;65471;55.908;37.880;2023-06-14T00:27:57;100211.00;;;10.43;72.42
76590;BME280;65471;55.908;37.880;2023-06-14T00:30:24;100209.34;;;10.42;72.10
76590;BME280;65471;55.908;37.880;2023-06-14T00:32:52;100217.44;;;10.42;72.05
76590;BME280;65471;55.908;37.880;2023-06-14T00:35:19;100217.06;;;10.38;72.35
76590;BME280;65471;55.908;37.880;2023-06-14T00:37:46;100215.63;;;10.35;72.91
76590;BME280;65471;55.908;37.880;2023-06-14T00:40:13;100213.56;;;10.31;72.60
76590;BME280;65471;55.908;37.880;2023-06-14T00:42:40;100212.34;;;10.27;72.67
76590;BME280;65471;55.908;37.880;2023-06-14T00:45:08;100210.25;;;10.29;72.51
76590;BME280;65471;55.908;37.880;2023-06-14T00:47:37;100204.84;;;10.29;72.85
76590;BME280;65471;55.908;37.880;2023-06-14T00:50:09;100210.03;;;10.30;72.83
76590;BME280;65471;55.908;37.880;2023-06-14T00:52:36;100206.50;;;10.30;72.83
76590;BME280;65471;55.908;37.880;2023-06-14T00:55:04;100212.13;;;10.28;72.79
76590;BME280;65471;55.908;37.880;2023-06-14T00:57:32;100201.13;;;10.23;72.50
76590;BME280;65471;55.908;37.880;2023-06-14T00:59:59;100209.69;;;10.20;72.86
76590;BME280;65471;55.908;37.880;2023-06-14T01:02:26;100207.41;;;10.17;73.32
76590;BME280;65471;55.908;37.880;2023-06-14T01:04:53;100204.34;;;10.13;73.30
76590;BME280;65471;55.908;37.880;2023-06-14T01:10:13;100204.97;;;10.09;73.17
76590;BME280;65471;55.908;37.880;2023-06-14T01:12:57;100205.59;;;10.11;73.14
76590;BME280;65471;55.908;37.880;2023-06-14T01:15:26;100198.53;;;10.10;73.39
76590;BME280;65471;55.908;37.880;2023-06-14T01:17:54;100207.53;;;10.04;73.19
76590;BME280;65471;55.908;37.880;2023-06-14T01:20:31;100210.22;;;10.04;73.45
76590;BME280;65471;55.908;37.880;2023-06-14T01:22:59;100210.22;;;10.04;73.35
76590;BME280;65471;55.908;37.880;2023-06-14T01:25:27;100209.81;;;10.00;73.67
76590;BME280;65471;55.908;37.880;2023-06-14T01:28:00;100209.00;;;9.99;74.09
76590;BME280;65471;55.908;37.880;2023-06-14T01:30:30;100210.03;;;9.98;73.83
76590;BME280;65471;55.908;37.880;2023-06-14T01:32:57;100213.78;;;9.97;73.83
76590;BME280;65471;55.908;37.880;2023-06-14T01:35:25;100210.47;;;9.95;74.20
76590;BME280;65471;55.908;37.880;2023-06-14T01:37:53;100214.63;;;9.98;74.16
76590;BME280;65471;55.908;37.880;2023-06-14T01:40:21;100214.63;;;9.98;73.95
76590;BME280;65471;55.908;37.880;2023-06-14T01:42:50;100214.84;;;9.96;74.14
76590;BME280;65471;55.908;37.880;2023-06-14T01:45:18;100215.66;;;9.97;74.04
76590;BME280;65471;55.908;37.880;2023-06-14T01:47:45;100223.75;;;9.97;73.99
76590;BME280;65471;55.908;37.880;2023-06-14T01:50:13;100225.00;;;9.94;74.35
76590;BME280;65471;55.908;37.880;2023-06-14T01:52:41;100225.00;;;9.94;74.65
76590;BME280;65471;55.908;37.880;2023-06-14T01:55:08;100220.47;;;9.95;74.33
76590;BME280;65471;55.908;37.880;2023-06-14T01:57:35;100221.28;;;9.95;74.10
76590;BME280;65471;55.908;37.880;2023-06-14T02:00:04;100219.59;;;9.94;74.65
76590;BME280;65471;55.908;37.880;2023-06-14T02:02:34;100225.00;;;9.94;74.37
76590;BME280;65471;55.908;37.880;2023-06-14T02:05:02;100209.44;;;9.96;74.69
76590;BME280;65471;55.908;37.880;2023-06-14T02:07:29;100206.94;;;9.95;74.55
76590;BME280;65471;55.908;37.880;2023-06-14T02:09:56;100201.53;;;9.95;74.61
76590;BME280;65471;55.908;37.880;2023-06-14T02:12:23;100219.16;;;9.97;75.08
76590;BME280;65471;55.908;37.880;2023-06-14T02:14:50;100211.91;;;9.98;74.98
76590;BME280;65471;55.908;37.880;2023-06-14T02:17:17;100216.25;;;9.99;75.50
76590;BME280;65471;55.908;37.880;2023-06-14T02:19:44;100224.97;;;10.01;75.26
76590;BME280;65471;55.908;37.880;2023-06-14T02:22:11;100215.63;;;10.04;75.84
76590;BME280;65471;55.908;37.880;2023-06-14T02:24:38;100219.97;;;10.05;75.43
76590;BME280;65471;55.908;37.880;2023-06-14T02:27:05;100218.47;;;10.09;75.83
76590;BME280;65471;55.908;37.880;2023-06-14T02:29:33;100215.38;;;10.12;75.90
76590;BME280;65471;55.908;37.880;2023-06-14T02:32:00;100212.44;;;10.13;75.77
76590;BME280;65471;55.908;37.880;2023-06-14T02:34:27;100212.59;;;10.18;76.11
76590;BME280;65471;55.908;37.880;2023-06-14T02:36:54;100222.56;;;10.25;76.27
76590;BME280;65471;55.908;37.880;2023-06-14T02:39:21;100222.72;;;10.30;76.08
76590;BME280;65471;55.908;37.880;2023-06-14T02:41:50;100224.16;;;10.32;76.13
76590;BME280;65471;55.908;37.880;2023-06-14T02:44:24;100221.44;;;10.39;76.30
76590;BME280;65471;55.908;37.880;2023-06-14T02:46:53;100222.84;;;10.42;76.16
76590;BME280;65471;55.908;37.880;2023-06-14T02:49:20;100229.72;;;10.44;76.13
76590;BME280;65471;55.908;37.880;2023-06-14T02:51:47;100228.00;;;10.50;76.63
76590;BME280;65471;55.908;37.880;2023-06-14T02:54:14;100227.97;;;10.57;76.16
76590;BME280;65471;55.908;37.880;2023-06-14T02:56:41;100237.06;;;10.62;76.05
76590;BME280;65471;55.908;37.880;2023-06-14T02:59:08;100231.00;;;10.67;76.11
76590;BME280;65471;55.908;37.880;2023-06-14T03:01:36;100232.81;;;10.73;76.43
76590;BME280;65471;55.908;37.880;2023-06-14T03:04:08;100236.31;;;10.80;75.70
76590;BME280;65471;55.908;37.880;2023-06-14T03:06:36;100234.59;;;10.86;76.18
76590;BME280;65471;55.908;37.880;2023-06-14T03:09:03;100236.63;;;10.91;75.73
76590;BME280;65471;55.908;37.880;2023-06-14T03:11:36;100235.94;;;10.95;76.13
76590;BME280;65471;55.908;37.880;2023-06-14T03:14:02;100225.06;;;11.02;75.85
76590;BME280;65471;55.908;37.880;2023-06-14T03:16:31;100238.50;;;11.09;76.04
76590;BME280;65471;55.908;37.880;2023-06-14T03:18:58;100244.91;;;11.14;76.09
76590;BME280;65471;55.908;37.880;2023-06-14T03:21:25;100240.25;;;11.21;75.76
76590;BME280;65471;55.908;37.880;2023-06-14T03:23:55;100239.13;;;11.29;75.25
76590;BME280;65471;55.908;37.880;2023-06-14T03:26:22;100244.50;;;11.36;75.23
76590;BME280;65471;55.908;37.880;2023-06-14T03:28:49;100240.66;;;11.44;74.95
76590;BME280;65471;55.908;37.880;2023-06-14T03:31:16;100239.50;;;11.51;74.92
76590;BME280;65471;55.908;37.880;2023-06-14T03:33:43;100235.06;;;11.57;74.68
76590;BME280;65471;55.908;37.880;2023-06-14T03:36:10;100239.34;;;11.65;74.27
76590;BME280;65471;55.908;37.880;2023-06-14T03:38:37;100233.41;;;11.74;73.77
76590;BME280;65471;55.908;37.880;2023-06-14T03:41:04;100234.97;;;11.82;73.38
76590;BME280;65471;55.908;37.880;2023-06-14T03:43:32;100234.66;;;11.90;73.48
76590;BME280;65471;55.908;37.880;2023-06-14T03:46:00;100228.09;;;11.98;72.97
76590;BME280;65471;55.908;37.880;2023-06-14T03:48:27;100227.78;;;12.06;72.92
76590;BME280;65471;55.908;37.880;2023-06-14T03:50:54;100226.41;;;12.16;72.47
76590;BME280;65471;55.908;37.880;2023-06-14T03:53:24;100225.00;;;12.25;72.43
76590;BME280;65471;55.908;37.880;2023-06-14T03:55:51;100229.88;;;12.35;72.46
76590;BME280;65471;55.908;37.880;2023-06-14T03:58:23;100222.00;;;12.45;71.97
76590;BME280;65471;55.908;37.880;2023-06-14T04:00:50;100222.03;;;12.57;71.61
76590;BME280;65471;55.908;37.880;2023-06-14T04:03:17;100224.97;;;12.67;71.76
76590;BME280;65471;55.908;37.880;2023-06-14T04:05:44;100216.84;;;12.79;71.66
76590;BME280;65471;55.908;37.880;2023-06-14T04:08:11;100218.72;;;12.90;71.25
76590;BME280;65471;55.908;37.880;2023-06-14T04:10:41;100219.81;;;13.01;71.42
76590;BME280;65471;55.908;37.880;2023-06-14T04:13:08;100226.88;;;13.14;71.26
76590;BME280;65471;55.908;37.880;2023-06-14T04:15:39;100222.72;;;13.23;71.03
76590;BME280;65471;55.908;37.880;2023-06-14T04:18:08;100228.16;;;13.35;70.87
76590;BME280;65471;55.908;37.880;2023-06-14T04:20:36;100221.41;;;13.50;70.48
76590;BME280;65471;55.908;37.880;2023-06-14T04:23:13;100226.09;;;13.66;70.18
76590;BME280;65471;55.908;37.880;2023-06-14T04:25:41;100228.75;;;13.78;69.52
76590;BME280;65471;55.908;37.880;2023-06-14T04:28:12;100220.91;;;13.93;69.38
76590;BME280;65471;55.908;37.880;2023-06-14T04:30:39;100222.50;;;14.06;69.10
76590;BME280;65471;55.908;37.880;2023-06-14T04:33:07;100223.28;;;14.19;68.93
76590;BME280;65471;55.908;37.880;2023-06-14T04:35:36;100221.88;;;14.33;68.93
76590;BME280;65471;55.908;37.880;2023-06-14T04:38:03;100216.97;;;14.47;68.06
76590;BME280;65471;55.908;37.880;2023-06-14T04:40:36;100215.81;;;14.60;67.59
76590;BME280;65471;55.908;37.880;2023-06-14T04:43:09;100226.38;;;14.73;67.08
76590;BME280;65471;55.908;37.880;2023-06-14T04:45:39;100221.44;;;14.87;67.13
76590;BME280;65471;55.908;37.880;2023-06-14T04:48:06;100213.75;;;15.01;66.47
76590;BME280;65471;55.908;37.880;2023-06-14T04:50:33;100210.66;;;15.14;65.83
76590;BME280;65471;55.908;37.880;2023-06-14T04:53:01;100218.53;;;15.33;64.08
76590;BME280;65471;55.908;37.880;2023-06-14T04:55:29;100216.56;;;15.50;63.61
76590;BME280;65471;55.908;37.880;2023-06-14T04:57:56;100223.31;;;15.65;62.52
76590;BME280;65471;55.908;37.880;2023-06-14T05:00:23;100212.09;;;15.83;61.50
76590;BME280;65471;55.908;37.880;2023-06-14T05:02:50;100214.41;;;15.97;61.31
76590;BME280;65471;55.908;37.880;2023-06-14T05:05:18;100212.56;;;16.02;61.30
76590;BME280;65471;55.908;37.880;2023-06-14T05:07:46;100213.97;;;16.10;60.41
76590;BME280;65471;55.908;37.880;2023-06-14T05:10:13;100214.09;;;16.20;59.10
76590;BME280;65471;55.908;37.880;2023-06-14T05:12:40;100215.84;;;16.32;58.69
76590;BME280;65471;55.908;37.880;2023-06-14T05:15:10;100212.09;;;16.43;58.86
76590;BME280;65471;55.908;37.880;2023-06-14T05:17:37;100216.00;;;16.52;58.86
76590;BME280;65471;55.908;37.880;2023-06-14T05:20:05;100221.81;;;16.61;58.53
76590;BME280;65471;55.908;37.880;2023-06-14T05:22:33;100217.78;;;16.69;58.94
76590;BME280;65471;55.908;37.880;2023-06-14T05:25:00;100220.59;;;16.79;58.25
76590;BME280;65471;55.908;37.880;2023-06-14T05:27:28;100217.41;;;16.93;57.56
76590;BME280;65471;55.908;37.880;2023-06-14T05:29:55;100211.53;;;17.11;55.89
76590;BME280;65471;55.908;37.880;2023-06-14T05:32:25;100207.22;;;17.25;55.94
76590;BME280;65471;55.908;37.880;2023-06-14T05:34:52;100207.56;;;17.39;55.88
76590;BME280;65471;55.908;37.880;2023-06-14T05:37:19;100209.25;;;17.51;55.73
76590;BME280;65471;55.908;37.880;2023-06-14T05:39:46;100215.03;;;17.59;55.65
76590;BME280;65471;55.908;37.880;2023-06-14T05:42:13;100212.31;;;17.70;54.84
76590;BME280;65471;55.908;37.880;2023-06-14T05:44:40;100203.91;;;17.82;53.83
76590;BME280;65471;55.908;37.880;2023-06-14T05:47:07;100203.41;;;17.95;53.74
76590;BME280;65471;55.908;37.880;2023-06-14T05:49:34;100201.22;;;18.02;53.12
76590;BME280;65471;55.908;37.880;2023-06-14T05:52:01;100203.16;;;18.12;52.22
76590;BME280;65471;55.908;37.880;2023-06-14T05:54:28;100201.78;;;18.20;52.04
76590;BME280;65471;55.908;37.880;2023-06-14T05:56:55;100208.09;;;18.25;52.37
76590;BME280;65471;55.908;37.880;2023-06-14T05:59:28;100215.78;;;18.28;52.16
76590;BME280;65471;55.908;37.880;2023-06-14T06:01:55;100216.63;;;18.34;51.48
76590;BME280;65471;55.908;37.880;2023-06-14T06:04:23;100219.63;;;18.43;51.50
76590;BME280;65471;55.908;37.880;2023-06-14T06:06:50;100225.63;;;18.45;52.49
76590;BME280;65471;55.908;37.880;2023-06-14T06:09:17;100220.19;;;18.50;51.00
76590;BME280;65471;55.908;37.880;2023-06-14T06:11:44;100211.94;;;18.60;49.04
76590;BME280;65471;55.908;37.880;2023-06-14T06:14:19;100209.75;;;18.73;48.35
76590;BME280;65471;55.908;37.880;2023-06-14T06:16:46;100214.13;;;18.84;47.39
76590;BME280;65471;55.908;37.880;2023-06-14T06:19:14;100208.38;;;18.91;47.75
76590;BME280;65471;55.908;37.880;2023-06-14T06:21:41;100209.19;;;18.96;47.04
76590;BME280;65471;55.908;37.880;2023-06-14T06:24:08;100216.03;;;19.04;47.66
76590;BME280;65471;55.908;37.880;2023-06-14T06:26:35;100208.34;;;19.06;48.71
76590;BME280;65471;55.908;37.880;2023-06-14T06:29:02;100209.16;;;19.12;47.80
76590;BME280;65471;55.908;37.880;2023-06-14T06:31:29;100210.53;;;19.20;46.86
76590;BME280;65471;55.908;37.880;2023-06-14T06:33:56;100211.03;;;19.32;47.21
76590;BME280;65471;55.908;37.880;2023-06-14T06:36:23;100210.97;;;19.42;45.77
76590;BME280;65471;55.908;37.880;2023-06-14T06:38:50;100199.16;;;19.52;43.87
76590;BME280;65471;55.908;37.880;2023-06-14T06:41:18;100198.56;;;19.55;42.75
76590;BME280;65471;55.908;37.880;2023-06-14T06:43:45;100189.25;;;19.61;42.46
76590;BME280;65471;55.908;37.880;2023-06-14T06:46:12;100197.44;;;19.66;42.73
76590;BME280;65471;55.908;37.880;2023-06-14T06:48:40;100205.06;;;19.75;41.43
76590;BME280;65471;55.908;37.880;2023-06-14T06:51:07;100200.97;;;19.82;40.23
76590;BME280;65471;55.908;37.880;2023-06-14T06:53:34;100193.25;;;19.90;40.41
76590;BME280;65471;55.908;37.880;2023-06-14T06:56:09;100189.34;;;19.96;40.19
76590;BME280;65471;55.908;37.880;2023-06-14T06:58:36;100187.09;;;20.03;40.87
76590;BME280;65471;55.908;37.880;2023-06-14T07:01:03;100189.53;;;20.10;41.12
76590;BME280;65471;55.908;37.880;2023-06-14T07:03:30;100191.41;;;20.20;40.61
76590;BME280;65471;55.908;37.880;2023-06-14T07:05:57;100191.03;;;20.31;40.84
76590;BME280;65471;55.908;37.880;2023-06-14T07:08:25;100193.97;;;20.40;40.95
76590;BME280;65471;55.908;37.880;2023-06-14T07:10:52;100195.56;;;20.46;41.46
76590;BME280;65471;55.908;37.880;2023-06-14T07:13:19;100195.81;;;20.50;41.08
76590;BME280;65471;55.908;37.880;2023-06-14T07:15:46;100200.44;;;20.55;40.82
76590;BME280;65471;55.908;37.880;2023-06-14T07:18:13;100193.28;;;20.53;40.33
76590;BME280;65471;55.908;37.880;2023-06-14T07:20:42;100197.38;;;20.61;40.49
76590;BME280;65471;55.908;37.880;2023-06-14T07:23:09;100191.28;;;20.69;40.06
76590;BME280;65471;55.908;37.880;2023-06-14T07:25:37;100181.56;;;20.77;40.06
76590;BME280;65471;55.908;37.880;2023-06-14T07:28:04;100184.50;;;20.86;39.75
76590;BME280;65471;55.908;37.880;2023-06-14T07:30:31;100177.00;;;20.97;40.04
76590;BME280;65471;55.908;37.880;2023-06-14T07:32:58;100185.16;;;21.02;39.86
76590;BME280;65471;55.908;37.880;2023-06-14T07:35:25;100176.88;;;21.07;39.46
76590;BME280;65471;55.908;37.880;2023-06-14T07:37:52;100167.97;;;21.15;38.79
76590;BME280;65471;55.908;37.880;2023-06-14T07:42:47;100176.28;;;21.34;38.44
76590;BME280;65471;55.908;37.880;2023-06-14T07:45:14;100181.06;;;21.48;38.68
76590;BME280;65471;55.908;37.880;2023-06-14T07:47:42;100180.88;;;21.63;38.37
76590;BME280;65471;55.908;37.880;2023-06-14T07:50:09;100178.81;;;21.74;38.18
76590;BME280;65471;55.908;37.880;2023-06-14T07:52:36;100172.34;;;21.84;37.76
76590;BME280;65471;55.908;37.880;2023-06-14T07:55:04;100172.44;;;21.98;37.72
76590;BME280;65471;55.908;37.880;2023-06-14T07:57:31;100168.84;;;21.97;36.61
76590;BME280;65471;55.908;37.880;2023-06-14T07:59:58;100173.91;;;22.09;37.19
76590;BME280;65471;55.908;37.880;2023-06-14T08:02:25;100177.84;;;22.22;37.43
76590;BME280;65471;55.908;37.880;2023-06-14T08:04:52;100181.09;;;22.43;36.94
76590;BME280;65471;55.908;37.880;2023-06-14T08:07:19;100171.03;;;22.52;36.15
76590;BME280;65471;55.908;37.880;2023-06-14T08:09:46;100175.63;;;22.57;36.31
76590;BME280;65471;55.908;37.880;2023-06-14T08:12:13;100180.38;;;22.70;36.30
76590;BME280;65471;55.908;37.880;2023-06-14T08:14:42;100166.69;;;22.79;35.56
76590;BME280;65471;55.908;37.880;2023-06-14T08:17:09;100165.66;;;22.75;36.05
76590;BME280;65471;55.908;37.880;2023-06-14T08:19:35;100167.63;;;23.02;35.88
76590;BME280;65471;55.908;37.880;2023-06-14T08:22:03;100162.56;;;23.23;35.83
76590;BME280;65471;55.908;37.880;2023-06-14T08:24:30;100167.31;;;23.46;35.28
76590;BME280;65471;55.908;37.880;2023-06-14T08:26:58;100174.75;;;23.73;35.49
76590;BME280;65471;55.908;37.880;2023-06-14T08:29:27;100167.84;;;23.84;35.08
76590;BME280;65471;55.908;37.880;2023-06-14T08:31:57;100167.78;;;23.89;34.40
76590;BME280;65471;55.908;37.880;2023-06-14T08:34:24;100174.69;;;24.01;34.49
76590;BME280;65471;55.908;37.880;2023-06-14T08:36:51;100179.22;;;24.19;34.31
76590;BME280;65471;55.908;37.880;2023-06-14T08:39:18;100183.06;;;24.32;34.51
76590;BME280;65471;55.908;37.880;2023-06-14T08:41:46;100176.78;;;24.40;34.84
76590;BME280;65471;55.908;37.880;2023-06-14T08:44:16;100172.31;;;24.53;33.99
76590;BME280;65471;55.908;37.880;2023-06-14T08:46:43;100174.75;;;24.55;33.09
76590;BME280;65471;55.908;37.880;2023-06-14T08:49:11;100170.88;;;24.56;33.03
76590;BME280;65471;55.908;37.880;2023-06-14T08:51:38;100156.91;;;24.61;32.85
76590;BME280;65471;55.908;37.880;2023-06-14T08:54:07;100158.00;;;24.83;33.38
76590;BME280;65471;55.908;37.880;2023-06-14T08:56:37;100156.44;;;24.99;33.32
76590;BME280;65471;55.908;37.880;2023-06-14T08:59:05;100152.13;;;25.15;33.87
76590;BME280;65471;55.908;37.880;2023-06-14T09:01:33;100147.59;;;25.28;34.48
76590;BME280;65471;55.908;37.880;2023-06-14T09:04:01;100150.84;;;25.30;34.14
76590;BME280;65471;55.908;37.880;2023-06-14T09:06:29;100145.38;;;25.39;34.31
76590;BME280;65471;55.908;37.880;2023-06-14T09:08:56;100135.94;;;25.40;33.05
76590;BME280;65471;55.908;37.880;2023-06-14T09:11:24;100144.72;;;25.42;33.75
76590;BME280;65471;55.908;37.880;2023-06-14T09:13:53;100140.00;;;25.43;33.26
76590;BME280;65471;55.908;37.880;2023-06-14T09:16:20;100141.59;;;25.35;34.18
76590;BME280;65471;55.908;37.880;2023-06-14T09:18:47;100144.16;;;25.23;32.94
76590;BME280;65471;55.908;37.880;2023-06-14T09:21:16;100142.97;;;25.06;32.97
76590;BME280;65471;55.908;37.880;2023-06-14T09:23:45;100142.94;;;24.97;33.20
76590;BME280;65471;55.908;37.880;2023-06-14T09:26:19;100140.81;;;24.94;32.78
76590;BME280;65471;55.908;37.880;2023-06-14T09:28:50;100138.78;;;24.77;32.58
76590;BME280;65471;55.908;37.880;2023-06-14T09:31:18;100140.78;;;24.54;33.18
76590;BME280;65471;55.908;37.880;2023-06-14T09:33:49;100137.41;;;24.35;33.54
76590;BME280;65471;55.908;37.880;2023-06-14T09:36:21;100139.22;;;24.17;34.08
76590;BME280;65471;55.908;37.880;2023-06-14T09:39:01;100134.38;;;24.00;34.16
76590;BME280;65471;55.908;37.880;2023-06-14T09:41:40;100132.19;;;23.74;33.59
76590;BME280;65471;55.908;37.880;2023-06-14T09:44:08;100125.19;;;23.54;32.94
76590;BME280;65471;55.908;37.880;2023-06-14T09:46:43;100118.28;;;23.42;33.55
76590;BME280;65471;55.908;37.880;2023-06-14T09:49:11;100119.00;;;23.34;34.62
76590;BME280;65471;55.908;37.880;2023-06-14T09:51:45;100116.84;;;23.31;34.30
76590;BME280;65471;55.908;37.880;2023-06-14T09:54:15;100114.63;;;23.33;35.62
76590;BME280;65471;55.908;37.880;2023-06-14T09:56:47;100116.84;;;23.31;35.69
76590;BME280;65471;55.908;37.880;2023-06-14T09:59:16;100120.75;;;23.30;35.23
76590;BME280;65471;55.908;37.880;2023-06-14T10:01:46;100119.75;;;23.26;34.93
76590;BME280;65471;55.908;37.880;2023-06-14T10:04:15;100120.25;;;23.28;34.63
76590;BME280;65471;55.908;37.880;2023-06-14T10:06:47;100107.06;;;23.25;33.74
76590;BME280;65471;55.908;37.880;2023-06-14T10:09:14;100110.94;;;23.24;34.18
76590;BME280;65471;55.908;37.880;2023-06-14T10:11:43;100097.03;;;23.29;34.70
76590;BME280;65471;55.908;37.880;2023-06-14T10:14:12;100103.69;;;23.28;34.10
76590;BME280;65471;55.908;37.880;2023-06-14T10:16:56;100097.19;;;23.47;34.47
76590;BME280;65471;55.908;37.880;2023-06-14T10:19:30;100090.66;;;23.79;34.83
76590;BME280;65471;55.908;37.880;2023-06-14T10:22:14;100091.13;;;23.95;34.35
76590;BME280;65471;55.908;37.880;2023-06-14T10:24:44;100090.13;;;23.91;34.99
76590;BME280;65471;55.908;37.880;2023-06-14T10:27:15;100086.03;;;23.88;34.94
76590;BME280;65471;55.908;37.880;2023-06-14T10:32:23;100077.69;;;24.02;33.52
76590;BME280;65471;55.908;37.880;2023-06-14T10:35:08;100083.97;;;23.94;34.12
76590;BME280;65471;55.908;37.880;2023-06-14T10:37:35;100079.47;;;23.84;34.50
76590;BME280;65471;55.908;37.880;2023-06-14T10:40:03;100078.19;;;23.82;34.09
76590;BME280;65471;55.908;37.880;2023-06-14T10:42:32;100077.56;;;23.85;34.93
76590;BME280;65471;55.908;37.880;2023-06-14T10:45:00;100081.75;;;23.82;34.31
76590;BME280;65471;55.908;37.880;2023-06-14T10:47:36;100081.25;;;23.80;33.54
76590;BME280;65471;55.908;37.880;2023-06-14T10:50:07;100073.66;;;24.08;32.85
76590;BME280;65471;55.908;37.880;2023-06-14T10:52:38;100072.56;;;24.41;33.08
76590;BME280;65471;55.908;37.880;2023-06-14T10:55:17;100072.25;;;24.42;32.59
76590;BME280;65471;55.908;37.880;2023-06-14T10:57:49;100078.03;;;24.32;32.35
76590;BME280;65471;55.908;37.880;2023-06-14T11:00:25;100062.09;;;24.29;32.11
76590;BME280;65471;55.908;37.880;2023-06-14T11:05:53;100062.88;;;23.98;31.68
76590;BME280;65471;55.908;37.880;2023-06-14T11:11:09;100055.84;;;24.15;31.41
76590;BME280;65471;55.908;37.880;2023-06-14T11:13:41;100064.09;;;24.37;31.46
76590;BME280;65471;55.908;37.880;2023-06-14T11:16:17;100065.34;;;24.62;31.71
76590;BME280;65471;55.908;37.880;2023-06-14T11:18:46;100058.75;;;24.81;31.71
76590;BME280;65471;55.908;37.880;2023-06-14T11:21:17;100060.25;;;24.87;31.34
76590;BME280;65471;55.908;37.880;2023-06-14T11:23:50;100060.28;;;25.05;32.01
76590;BME280;65471;55.908;37.880;2023-06-14T11:26:28;100060.22;;;25.36;31.61
76590;BME280;65471;55.908;37.880;2023-06-14T11:28:59;100056.16;;;25.69;31.30
76590;BME280;65471;55.908;37.880;2023-06-14T11:31:28;100060.09;;;26.41;30.37
76590;BME280;65471;55.908;37.880;2023-06-14T11:34:00;100052.50;;;27.49;27.54
76590;BME280;65471;55.908;37.880;2023-06-14T11:36:31;100053.09;;;28.80;27.74
76590;BME280;65471;55.908;37.880;2023-06-14T11:39:05;100052.00;;;30.03;26.84
76590;BME280;65471;55.908;37.880;2023-06-14T11:41:44;100034.66;;;30.89;24.74
76590;BME280;65471;55.908;37.880;2023-06-14T11:44:11;100040.66;;;31.43;24.71
76590;BME280;65471;55.908;37.880;2023-06-14T11:46:38;100028.31;;;32.06;24.25
76590;BME280;65471;55.908;37.880;2023-06-14T11:49:07;100032.22;;;32.21;23.54
76590;BME280;65471;55.908;37.880;2023-06-14T11:51:36;100028.91;;;32.15;23.70
76590;BME280;65471;55.908;37.880;2023-06-14T11:54:04;100023.28;;;31.33;25.07
76590;BME280;65471;55.908;37.880;2023-06-14T11:56:32;100026.78;;;31.11;24.81
76590;BME280;65471;55.908;37.880;2023-06-14T11:58:59;100030.53;;;30.35;26.19
76590;BME280;65471;55.908;37.880;2023-06-14T12:01:29;100024.44;;;30.61;24.25
76590;BME280;65471;55.908;37.880;2023-06-14T12:03:56;100029.06;;;30.89;24.14
76590;BME280;65471;55.908;37.880;2023-06-14T12:06:28;100025.38;;;30.21;24.26
76590;BME280;65471;55.908;37.880;2023-06-14T12:08:56;100015.25;;;29.56;25.22
76590;BME280;65471;55.908;37.880;2023-06-14T12:11:23;100027.72;;;28.69;26.89
76590;BME280;65471;55.908;37.880;2023-06-14T12:13:56;100020.59;;;27.88;27.94
76590;BME280;65471;55.908;37.880;2023-06-14T12:16:30;100015.63;;;27.18;28.76
76590;BME280;65471;55.908;37.880;2023-06-14T12:19:01;100018.19;;;26.43;29.90
76590;BME280;65471;55.908;37.880;2023-06-14T12:21:29;100021.44;;;25.80;30.33
76590;BME280;65471;55.908;37.880;2023-06-14T12:23:56;100014.59;;;25.42;30.88
76590;BME280;65471;55.908;37.880;2023-06-14T12:26:24;100009.38;;;25.14;30.40
76590;BME280;65471;55.908;37.880;2023-06-14T12:28:52;100008.50;;;24.88;31.46
76590;BME280;65471;55.908;37.880;2023-06-14T12:31:19;99997.56;;;24.65;31.19
76590;BME280;65471;55.908;37.880;2023-06-14T12:33:46;100013.06;;;24.43;31.93
76590;BME280;65471;55.908;37.880;2023-06-14T12:36:16;100008.13;;;24.23;31.96
76590;BME280;65471;55.908;37.880;2023-06-14T12:38:46;100005.75;;;24.07;32.67
76590;BME280;65471;55.908;37.880;2023-06-14T12:41:13;100000.78;;;23.95;33.37
76590;BME280;65471;55.908;37.880;2023-06-14T12:43:41;100003.06;;;23.71;33.48
76590;BME280;65471;55.908;37.880;2023-06-14T12:46:08;99997.84;;;23.69;33.53
76590;BME280;65471;55.908;37.880;2023-06-14T12:48:36;99994.72;;;23.62;33.96
76590;BME280;65471;55.908;37.880;2023-06-14T12:51:03;99987.03;;;23.50;34.83
76590;BME280;65471;55.908;37.880;2023-06-14T12:53:30;99996.34;;;23.40;34.63
76590;BME280;65471;55.908;37.880;2023-06-14T12:55:57;99994.22;;;23.37;32.95
76590;BME280;65471;55.908;37.880;2023-06-14T12:58:24;99989.69;;;23.41;32.39
76590;BME280;65471;55.908;37.880;2023-06-14T13:00:51;99991.97;;;23.39;33.38